createdAt,value
2023-03-19T00:07:56.184Z,48.97
2023-03-19T00:18:21.885Z,48.73
2023-03-19T00:28:47.470Z,48.23
2023-03-19T00:39:13.820Z,48.05
2023-03-19T00:49:39.904Z,48.54
2023-03-19T01:00:06.483Z,48.44
2023-03-19T01:10:34.257Z,49.34
2023-03-19T01:21:00.601Z,49.31
2023-03-19T01:31:26.534Z,49.42
2023-03-19T01:41:52.750Z,49.08
2023-03-19T01:52:18.587Z,49.00
2023-03-19T02:02:45.841Z,49.24
2023-03-19T02:13:11.738Z,49.44
2023-03-19T02:23:45.114Z,49.66
2023-03-19T02:34:37.071Z,49.50
2023-03-19T02:45:02.390Z,49.83
2023-03-19T02:55:28.097Z,50.43
2023-03-19T03:05:53.595Z,50.93
2023-03-19T03:16:19.469Z,50.72
2023-03-19T03:26:45.328Z,50.78
2023-03-19T03:37:11.323Z,50.92
2023-03-19T03:47:37.372Z,51.00
2023-03-19T03:58:04.203Z,51.39
2023-03-19T04:08:30.327Z,51.55
2023-03-19T04:18:56.245Z,51.46
2023-03-19T04:29:23.168Z,51.51
2023-03-19T04:39:48.849Z,52.03
2023-03-19T04:50:14.804Z,52.08
2023-03-19T05:00:40.476Z,51.91
2023-03-19T05:11:06.425Z,51.74
2023-03-19T05:21:32.132Z,52.17
2023-03-19T05:31:57.826Z,52.17
2023-03-19T05:42:23.607Z,52.31
2023-03-19T05:52:49.263Z,52.47
2023-03-19T06:03:15.218Z,52.73
2023-03-19T06:13:41.522Z,52.52
2023-03-19T06:24:07.974Z,52.46
2023-03-19T06:34:33.442Z,52.86
2023-03-19T06:44:59.354Z,53.12
2023-03-19T06:55:24.824Z,53.95
2023-03-19T07:05:53.004Z,54.09
2023-03-19T07:16:18.974Z,53.48
2023-03-19T07:26:45.067Z,53.57
2023-03-19T07:37:11.877Z,52.32
2023-03-19T07:47:37.318Z,51.73
2023-03-19T07:58:02.813Z,50.58
2023-03-19T08:08:28.365Z,49.41
2023-03-19T08:18:54.082Z,48.06
2023-03-19T08:29:23.089Z,46.39
2023-03-19T08:39:51.195Z,45.19
2023-03-19T08:50:17.420Z,44.64
2023-03-19T09:00:43.538Z,43.79
2023-03-19T09:11:10.674Z,43.50
2023-03-19T09:21:37.127Z,43.59
2023-03-19T09:32:03.406Z,43.57
2023-03-19T09:42:42.206Z,43.85
2023-03-19T09:53:16.383Z,43.17
2023-03-19T10:03:59.903Z,41.92
2023-03-19T10:14:46.920Z,41.93
2023-03-19T10:25:21.060Z,41.64
2023-03-19T10:35:50.486Z,40.70
2023-03-19T10:46:17.629Z,40.35
2023-03-19T10:56:48.740Z,40.70
2023-03-19T11:07:19.536Z,40.39
2023-03-19T11:17:50.021Z,40.98
2023-03-19T11:28:20.901Z,39.10
2023-03-19T11:39:00.802Z,38.44
2023-03-19T11:49:43.719Z,38.21
2023-03-19T12:00:23.581Z,38.08
2023-03-19T12:11:11.357Z,38.48
2023-03-19T12:21:51.077Z,38.27
2023-03-19T12:32:37.983Z,38.23
2023-03-19T12:43:08.262Z,40.25
2023-03-19T12:53:45.017Z,39.12
2023-03-19T13:04:15.665Z,37.89
2023-03-19T13:14:51.449Z,37.70
2023-03-19T13:25:22.447Z,38.46
2023-03-19T13:35:50.867Z,38.69
2023-03-19T13:46:46.463Z,39.37
2023-03-19T13:57:36.652Z,38.63
2023-03-19T14:08:02.467Z,39.57
2023-03-19T14:18:30.673Z,39.01
2023-03-19T14:29:03.670Z,38.51
2023-03-19T14:39:32.866Z,38.29
2023-03-19T14:50:20.571Z,38.23
2023-03-19T15:00:50.349Z,38.09
2023-03-19T15:11:34.175Z,38.25
2023-03-19T15:22:12.973Z,38.28
2023-03-19T15:33:02.839Z,38.45
2023-03-19T15:43:28.864Z,38.56
2023-03-19T15:53:55.458Z,38.67
2023-03-19T16:04:26.983Z,38.37
2023-03-19T16:14:52.425Z,38.56
2023-03-19T16:25:20.760Z,38.67
2023-03-19T16:35:46.756Z,39.39
2023-03-19T16:46:16.694Z,39.58
2023-03-19T16:56:42.625Z,39.25
2023-03-19T17:07:09.155Z,41.03
2023-03-19T17:17:34.546Z,41.86
2023-03-19T17:28:00.614Z,41.66
2023-03-19T17:38:36.242Z,42.71
2023-03-19T17:49:02.113Z,43.28
2023-03-19T17:59:28.516Z,43.83
2023-03-19T18:09:54.355Z,44.16
2023-03-19T18:20:23.418Z,44.59
2023-03-19T18:30:49.308Z,45.57
2023-03-19T18:41:20.189Z,45.94
2023-03-19T18:52:00.996Z,45.94
2023-03-19T19:02:35.092Z,46.60
2023-03-19T19:13:02.219Z,47.63
2023-03-19T19:23:30.307Z,48.28
2023-03-19T19:33:56.464Z,49.07
2023-03-19T19:44:23.602Z,49.62
2023-03-19T19:54:51.927Z,49.99
2023-03-19T20:05:21.890Z,50.42
2023-03-19T20:15:47.800Z,50.81
2023-03-19T20:26:16.708Z,51.13
2023-03-19T20:36:42.171Z,51.48
2023-03-19T20:47:17.699Z,51.59
2023-03-19T20:57:44.180Z,51.82
2023-03-19T21:08:19.640Z,51.79
2023-03-19T21:18:45.500Z,52.12
2023-03-19T21:29:16.771Z,52.15
2023-03-19T21:39:42.966Z,52.26
2023-03-19T21:50:15.766Z,52.68
2023-03-19T22:00:41.741Z,53.12
2023-03-19T22:11:15.195Z,53.27
2023-03-19T22:21:41.381Z,53.52
2023-03-19T22:32:16.027Z,53.79
2023-03-19T22:42:42.561Z,53.80
2023-03-19T22:53:20.874Z,53.88
2023-03-19T23:03:46.912Z,53.70
2023-03-19T23:14:27.894Z,53.74
2023-03-19T23:24:55.518Z,54.04
2023-03-19T23:35:24.036Z,54.17
2023-03-19T23:45:50.166Z,54.25
2023-03-19T23:56:21.445Z,54.14
